Weather at Subic Bay International Airport / Naval Air Station Cubi Point

Public forecast

Using degrees Celsius for public forecast. Weather courtesy of forecast.io.

Current aviation weather report (METAR) for Subic Bay International Airport / Naval Air Station Cubi Point

Retrieved 2020/11/26 01:00 UTC (3 minutes ago):

RPLB 260100Z 06009KT 040V100 9999 FEW020 28/19 Q1013 NOSIG RMK A2991

Aviation forecast (TAF) for Subic Bay International Airport / Naval Air Station Cubi Point

Retrieved 2020-11-26 00:00 UTC (1 hour ago):

TAF RPLB 252300Z 2600/2624 08012KT 9999 FEW020 SCT300 TX31/2606Z TN23/2621Z TEMPO 2600/2606 07016KT FEW020 SCT080